createdAt,value
2022-11-24T00:01:07.443Z,1.63
2022-11-24T00:03:34.393Z,1.67
2022-11-24T00:06:08.608Z,1.55
2022-11-24T00:08:35.932Z,1.55
2022-11-24T00:11:11.368Z,1.88
2022-11-24T00:13:39.248Z,1.52
2022-11-24T00:16:11.066Z,1.35
2022-11-24T00:18:38.963Z,1.63
2022-11-24T00:21:06.044Z,1.60
2022-11-24T00:23:33.407Z,1.90
2022-11-24T00:26:07.041Z,1.77
2022-11-24T00:28:34.256Z,1.90
2022-11-24T00:31:01.695Z,2.55
2022-11-24T00:33:28.757Z,2.00
2022-11-24T00:35:59.792Z,2.10
2022-11-24T00:38:26.905Z,1.92
2022-11-24T00:40:53.773Z,2.10
2022-11-24T00:43:20.767Z,2.15
2022-11-24T00:45:48.161Z,1.92
2022-11-24T00:48:15.177Z,1.80
2022-11-24T00:50:42.236Z,2.30
2022-11-24T00:53:09.217Z,2.50
2022-11-24T00:55:36.126Z,2.63
2022-11-24T00:58:03.315Z,3.38
2022-11-24T01:00:30.249Z,2.03
2022-11-24T01:02:57.226Z,2.10
2022-11-24T01:05:26.234Z,1.90
2022-11-24T01:07:53.388Z,1.80
2022-11-24T01:10:20.485Z,2.13
2022-11-24T01:12:47.866Z,1.77
2022-11-24T01:15:14.757Z,2.00
2022-11-24T01:17:41.604Z,2.17
2022-11-24T01:20:09.101Z,2.00
2022-11-24T01:22:36.030Z,2.40
2022-11-24T01:25:03.029Z,2.10
2022-11-24T01:27:30.238Z,2.22
2022-11-24T01:29:57.374Z,1.80
2022-11-24T01:32:24.367Z,1.98
2022-11-24T01:34:51.439Z,2.00
2022-11-24T01:37:18.388Z,1.77
2022-11-24T01:39:45.261Z,2.63
2022-11-24T01:42:12.616Z,1.80
2022-11-24T01:44:41.023Z,2.60
2022-11-24T01:47:14.025Z,2.10
2022-11-24T01:49:48.808Z,1.88
2022-11-24T01:52:16.451Z,1.83
2022-11-24T01:54:48.525Z,1.90
2022-11-24T01:57:21.071Z,1.90
2022-11-24T01:59:48.333Z,1.60
2022-11-24T02:02:19.199Z,1.65
2022-11-24T02:04:46.292Z,1.85
2022-11-24T02:07:13.222Z,1.60
2022-11-24T02:09:49.056Z,1.30
2022-11-24T02:12:16.010Z,1.55
2022-11-24T02:14:43.217Z,1.60
2022-11-24T02:17:10.386Z,1.60
2022-11-24T02:19:40.390Z,2.40
2022-11-24T02:22:41.591Z,1.60
2022-11-24T02:25:27.954Z,1.88
2022-11-24T02:27:55.374Z,1.50
2022-11-24T02:30:22.630Z,1.35
2022-11-24T02:32:49.531Z,2.03
2022-11-24T02:35:16.548Z,1.67
2022-11-24T02:37:43.469Z,1.90
2022-11-24T02:40:10.784Z,2.03
2022-11-24T02:42:39.989Z,2.10
2022-11-24T02:45:07.289Z,1.90
2022-11-24T02:47:34.181Z,1.90
2022-11-24T02:50:01.022Z,1.80
2022-11-24T02:52:27.857Z,1.90
2022-11-24T02:54:54.678Z,2.25
2022-11-24T02:57:22.822Z,2.40
2022-11-24T02:59:49.739Z,1.80
2022-11-24T03:02:16.732Z,1.73
2022-11-24T03:04:44.677Z,2.30
2022-11-24T03:07:11.562Z,2.13
2022-11-24T03:09:38.442Z,2.08
2022-11-24T03:12:05.442Z,2.15
2022-11-24T03:14:32.673Z,2.38
2022-11-24T03:16:59.854Z,2.67
2022-11-24T03:19:26.679Z,2.10
2022-11-24T03:21:53.635Z,2.03
2022-11-24T03:24:20.660Z,2.10
2022-11-24T03:26:47.559Z,2.08
2022-11-24T03:29:14.404Z,1.92
2022-11-24T03:31:41.394Z,2.10
2022-11-24T03:34:08.383Z,2.45
2022-11-24T03:36:35.304Z,3.00
2022-11-24T03:39:02.196Z,1.95
2022-11-24T03:41:29.112Z,2.30
2022-11-24T03:43:55.935Z,2.50
2022-11-24T03:46:22.855Z,2.15
2022-11-24T03:48:49.704Z,2.50
2022-11-24T03:51:16.580Z,2.85
2022-11-24T03:53:43.496Z,2.75
2022-11-24T03:56:10.408Z,2.20
2022-11-24T03:58:37.253Z,2.78
2022-11-24T04:01:04.167Z,3.10
2022-11-24T04:03:30.980Z,2.90
2022-11-24T04:05:57.831Z,2.28
2022-11-24T04:08:24.689Z,2.65
2022-11-24T04:10:52.887Z,2.38
2022-11-24T04:13:21.610Z,2.78
2022-11-24T04:15:48.544Z,2.22
2022-11-24T04:18:15.369Z,2.30
2022-11-24T04:20:42.830Z,2.35
2022-11-24T04:23:09.823Z,2.92
2022-11-24T04:25:36.974Z,2.75
2022-11-24T04:28:03.937Z,3.70
2022-11-24T04:30:33.296Z,3.00
2022-11-24T04:33:03.103Z,2.35
2022-11-24T04:35:29.893Z,3.38
2022-11-24T04:37:56.755Z,2.70
2022-11-24T04:40:23.594Z,2.35
2022-11-24T04:42:55.020Z,2.67
2022-11-24T04:45:22.714Z,2.38
2022-11-24T04:47:49.567Z,2.50
2022-11-24T04:50:16.710Z,2.45
2022-11-24T04:52:43.622Z,2.67
2022-11-24T04:55:10.847Z,2.53
2022-11-24T04:57:37.674Z,2.63
2022-11-24T05:00:05.162Z,2.10
2022-11-24T05:02:32.077Z,2.60
2022-11-24T05:04:58.912Z,2.42
2022-11-24T05:07:25.764Z,2.33
2022-11-24T05:10:11.312Z,2.47
2022-11-24T05:12:39.461Z,2.28
2022-11-24T05:15:08.201Z,2.38
2022-11-24T05:17:36.828Z,2.67
2022-11-24T05:20:04.899Z,2.30
2022-11-24T05:22:31.894Z,2.53
2022-11-24T05:24:58.788Z,3.33
2022-11-24T05:27:25.668Z,2.92
2022-11-24T05:29:52.522Z,2.58
2022-11-24T05:32:19.362Z,2.47
2022-11-24T05:34:46.339Z,2.97
2022-11-24T05:37:13.244Z,2.92
2022-11-24T05:39:40.137Z,2.20
2022-11-24T05:42:25.975Z,2.50
2022-11-24T05:44:53.280Z,2.97
2022-11-24T05:47:20.100Z,2.75
2022-11-24T05:49:47.094Z,2.75
2022-11-24T05:52:14.029Z,2.90
2022-11-24T05:54:40.927Z,3.13
2022-11-24T05:57:07.799Z,2.97
2022-11-24T05:59:34.722Z,2.85
2022-11-24T06:02:01.841Z,2.92
2022-11-24T06:04:28.920Z,3.85
2022-11-24T06:06:56.167Z,2.58
2022-11-24T06:09:23.005Z,2.90
2022-11-24T06:11:50.063Z,2.63
2022-11-24T06:14:16.869Z,2.63
2022-11-24T06:16:43.944Z,3.50
2022-11-24T06:19:11.337Z,2.80
2022-11-24T06:21:38.235Z,3.00
2022-11-24T06:24:05.587Z,3.92
2022-11-24T06:26:32.489Z,3.22
2022-11-24T06:28:59.392Z,2.75
2022-11-24T06:31:26.582Z,3.05
2022-11-24T06:33:53.685Z,3.08
2022-11-24T06:36:20.593Z,3.10
2022-11-24T06:38:47.569Z,3.47
2022-11-24T06:41:15.563Z,3.08
2022-11-24T06:43:42.545Z,3.20
2022-11-24T06:46:09.635Z,3.22
2022-11-24T06:48:36.816Z,3.05
2022-11-24T06:51:06.098Z,3.83
2022-11-24T06:53:37.781Z,3.10
2022-11-24T06:56:07.465Z,3.08
2022-11-24T06:58:41.602Z,3.03
2022-11-24T07:01:08.774Z,3.42
2022-11-24T07:03:35.864Z,3.20
2022-11-24T07:06:02.887Z,3.30
2022-11-24T07:08:29.819Z,3.17
2022-11-24T07:10:56.882Z,2.72
2022-11-24T07:13:23.760Z,4.43
2022-11-24T07:15:50.602Z,3.42
2022-11-24T07:18:17.461Z,2.95
2022-11-24T07:20:44.366Z,3.03
2022-11-24T07:23:11.306Z,3.58
2022-11-24T07:25:38.186Z,3.35
2022-11-24T07:28:05.661Z,2.85
2022-11-24T07:30:32.666Z,2.88
2022-11-24T07:33:00.386Z,3.25
2022-11-24T07:35:27.595Z,4.00
2022-11-24T07:37:58.077Z,2.72
2022-11-24T07:40:26.066Z,3.60
2022-11-24T07:42:53.655Z,2.97
2022-11-24T07:45:20.522Z,3.53
2022-11-24T07:47:47.523Z,3.42
2022-11-24T07:50:14.666Z,2.83
2022-11-24T07:52:41.509Z,3.35
2022-11-24T07:55:09.048Z,3.80
2022-11-24T07:57:36.207Z,3.60
2022-11-24T08:00:04.469Z,4.30
2022-11-24T08:02:31.489Z,3.10
2022-11-24T08:04:58.637Z,3.63
2022-11-24T08:07:25.546Z,2.90
2022-11-24T08:09:52.571Z,3.20
2022-11-24T08:12:22.854Z,3.47
2022-11-24T08:14:50.392Z,3.85
2022-11-24T08:17:18.084Z,3.05
2022-11-24T08:19:45.200Z,3.60
2022-11-24T08:22:12.461Z,3.60
2022-11-24T08:24:46.097Z,3.47
2022-11-24T08:27:13.849Z,2.90
2022-11-24T08:29:40.866Z,3.70
2022-11-24T08:32:08.026Z,4.07
2022-11-24T08:34:35.330Z,4.22
2022-11-24T08:37:04.525Z,4.13
2022-11-24T08:39:31.813Z,3.40
2022-11-24T08:41:58.686Z,4.00
2022-11-24T08:44:25.760Z,3.20
2022-11-24T08:46:54.020Z,3.33
2022-11-24T08:49:21.742Z,3.85
2022-11-24T08:51:49.994Z,3.67
2022-11-24T08:54:18.869Z,3.20
2022-11-24T08:56:46.312Z,4.53
2022-11-24T08:59:14.129Z,3.20
2022-11-24T09:01:42.112Z,3.45
2022-11-24T09:04:09.324Z,3.30
2022-11-24T09:06:36.286Z,3.05
2022-11-24T09:09:03.576Z,3.38
2022-11-24T09:11:30.841Z,3.50
2022-11-24T09:13:57.890Z,3.63
2022-11-24T09:16:26.539Z,3.47
2022-11-24T09:19:04.431Z,3.70
2022-11-24T09:21:32.348Z,3.30
2022-11-24T09:23:59.322Z,3.55
2022-11-24T09:26:32.641Z,3.58
2022-11-24T09:28:59.912Z,5.13
2022-11-24T09:31:29.230Z,3.30
2022-11-24T09:33:56.569Z,3.80
2022-11-24T09:36:23.523Z,4.10
2022-11-24T09:38:50.529Z,3.88
2022-11-24T09:41:22.399Z,4.78
2022-11-24T09:44:04.332Z,3.78
2022-11-24T09:46:55.769Z,4.53
2022-11-24T09:49:31.098Z,4.30
2022-11-24T09:51:58.340Z,4.65
2022-11-24T09:54:29.017Z,3.67
2022-11-24T09:56:57.932Z,4.28
2022-11-24T09:59:25.182Z,5.65
2022-11-24T10:01:52.257Z,4.15
2022-11-24T10:04:22.577Z,5.15
2022-11-24T10:07:08.012Z,4.30
2022-11-24T10:10:03.360Z,4.68
2022-11-24T10:13:07.517Z,4.65
2022-11-24T10:16:12.451Z,5.00
2022-11-24T10:18:50.291Z,5.03
2022-11-24T10:21:45.080Z,5.03
2022-11-24T10:24:45.085Z,5.78
2022-11-24T10:27:20.070Z,5.82
2022-11-24T10:29:49.946Z,5.50
2022-11-24T10:32:29.561Z,5.88
2022-11-24T10:34:58.413Z,6.22
2022-11-24T10:37:37.196Z,6.78
2022-11-24T10:40:55.916Z,7.43
2022-11-24T10:43:17.608Z,6.60
2022-11-24T10:45:44.561Z,6.68
2022-11-24T10:48:25.845Z,6.45
2022-11-24T10:51:01.253Z,7.47
2022-11-24T10:53:31.447Z,6.40
2022-11-24T10:56:03.749Z,6.53
2022-11-24T10:58:38.654Z,5.43
2022-11-24T11:01:15.111Z,5.78
2022-11-24T11:03:57.556Z,6.25
2022-11-24T11:06:26.437Z,4.38
2022-11-24T11:09:19.884Z,4.22
2022-11-24T11:11:49.697Z,5.03
2022-11-24T11:14:30.671Z,4.38
2022-11-24T11:16:58.144Z,5.35
2022-11-24T11:19:54.134Z,4.50
2022-11-24T11:22:25.146Z,4.95
2022-11-24T11:25:12.050Z,4.18
2022-11-24T11:27:39.646Z,4.20
2022-11-24T11:36:13.375Z,5.35
2022-11-24T11:38:40.261Z,4.13
2022-11-24T11:41:08.534Z,4.75
2022-11-24T11:43:36.145Z,3.65
2022-11-24T11:46:11.799Z,4.32
2022-11-24T11:48:43.721Z,3.85
2022-11-24T11:51:23.441Z,5.53
2022-11-24T11:54:10.159Z,4.28
2022-11-24T11:56:45.236Z,5.28
2022-11-24T11:59:27.129Z,5.15
2022-11-24T12:02:15.442Z,4.32
2022-11-24T12:04:53.264Z,3.70
2022-11-24T12:07:31.950Z,4.32
2022-11-24T12:10:23.287Z,4.22
2022-11-24T12:13:08.826Z,4.00
2022-11-24T12:15:57.266Z,4.40
2022-11-24T12:18:59.980Z,4.45
2022-11-24T12:21:53.186Z,4.45
2022-11-24T12:24:25.973Z,4.72
2022-11-24T12:26:57.310Z,3.90
2022-11-24T12:29:39.313Z,3.58
2022-11-24T12:32:33.193Z,4.07
2022-11-24T12:35:34.400Z,3.10
2022-11-24T12:38:07.061Z,4.53
2022-11-24T12:40:51.249Z,4.22
2022-11-24T12:43:51.267Z,4.05
2022-11-24T12:46:43.114Z,4.57
2022-11-24T12:49:33.638Z,4.65
2022-11-24T12:52:08.466Z,3.58
2022-11-24T12:54:39.052Z,3.78
2022-11-24T12:57:10.302Z,4.32
2022-11-24T12:59:43.915Z,3.85
2022-11-24T13:02:16.949Z,3.60
2022-11-24T13:05:03.258Z,4.13
2022-11-24T13:07:46.282Z,3.53
2022-11-24T13:10:46.943Z,3.75
2022-11-24T13:13:13.364Z,3.75
2022-11-24T13:19:02.859Z,3.92
2022-11-24T13:21:35.903Z,3.67
2022-11-24T13:24:05.470Z,4.05
2022-11-24T13:26:41.500Z,3.28
2022-11-24T13:29:27.648Z,3.38
2022-11-24T13:31:55.400Z,3.90
2022-11-24T13:34:55.052Z,4.05
2022-11-24T13:37:33.721Z,4.10
2022-11-24T13:40:23.076Z,3.92
2022-11-24T13:42:56.441Z,4.03
2022-11-24T13:45:43.158Z,3.15
2022-11-24T13:48:19.168Z,4.68
2022-11-24T13:50:56.065Z,4.00
2022-11-24T13:53:33.106Z,5.15
2022-11-24T13:56:13.632Z,3.90
2022-11-24T13:58:56.927Z,4.43
2022-11-24T14:01:23.863Z,4.28
2022-11-24T14:06:52.544Z,4.32
2022-11-24T14:09:32.085Z,3.65
2022-11-24T14:12:10.193Z,3.97
2022-11-24T14:14:37.560Z,4.60
2022-11-24T14:17:15.690Z,4.43
2022-11-24T14:19:43.518Z,3.72
2022-11-24T14:22:26.525Z,4.53
2022-11-24T14:24:55.421Z,3.95
2022-11-24T14:27:29.664Z,3.75
2022-11-24T14:29:58.622Z,4.10
2022-11-24T14:32:25.516Z,3.53
2022-11-24T14:34:54.211Z,4.00
2022-11-24T14:37:21.681Z,4.20
2022-11-24T14:39:49.555Z,4.00
2022-11-24T14:42:25.979Z,3.70
2022-11-24T14:44:56.536Z,4.40
2022-11-24T14:47:36.127Z,3.53
2022-11-24T14:50:07.862Z,3.95
2022-11-24T14:52:34.881Z,3.78
2022-11-24T14:55:21.323Z,3.85
2022-11-24T14:57:48.856Z,3.70
2022-11-24T15:00:25.404Z,3.60
2022-11-24T15:02:56.025Z,3.50
2022-11-24T15:05:24.053Z,4.20
2022-11-24T15:07:52.980Z,3.78
2022-11-24T15:10:21.530Z,5.05
2022-11-24T15:12:53.942Z,3.60
2022-11-24T15:17:56.360Z,3.53
2022-11-24T15:20:27.809Z,3.95
2022-11-24T15:23:27.551Z,3.80
2022-11-24T15:25:55.604Z,4.07
2022-11-24T15:28:28.795Z,3.20
2022-11-24T15:30:59.381Z,4.10
2022-11-24T15:33:26.735Z,3.58
2022-11-24T15:35:53.580Z,3.72
2022-11-24T15:38:20.863Z,3.03
2022-11-24T15:40:49.533Z,3.83
2022-11-24T15:43:31.557Z,3.38
2022-11-24T15:45:58.983Z,3.10
2022-11-24T15:48:25.811Z,3.95
2022-11-24T15:50:53.331Z,4.22
2022-11-24T15:53:22.851Z,3.53
2022-11-24T15:55:50.360Z,3.42
2022-11-24T15:58:17.689Z,3.63
2022-11-24T16:00:44.928Z,3.47
2022-11-24T16:03:44.433Z,3.88
2022-11-24T16:05:58.895Z,4.28
2022-11-24T16:08:25.831Z,4.05
2022-11-24T16:10:52.718Z,4.35
2022-11-24T16:13:19.657Z,3.30
2022-11-24T16:15:46.797Z,3.58
2022-11-24T16:18:15.589Z,2.80
2022-11-24T16:20:42.585Z,2.38
2022-11-24T16:23:09.509Z,3.00
2022-11-24T16:25:36.606Z,2.30
2022-11-24T16:28:03.693Z,2.83
2022-11-24T16:30:30.717Z,1.90
2022-11-24T16:32:58.100Z,1.73
2022-11-24T16:35:24.883Z,1.50
2022-11-24T16:37:51.737Z,1.50
2022-11-24T16:40:18.952Z,1.70
2022-11-24T16:42:45.814Z,1.70
2022-11-24T16:45:13.072Z,1.60
2022-11-24T16:47:41.110Z,1.55
2022-11-24T16:50:09.328Z,2.00
2022-11-24T16:52:36.433Z,1.33
2022-11-24T16:55:04.105Z,1.25
2022-11-24T16:57:31.056Z,1.50
2022-11-24T16:59:58.162Z,1.70
2022-11-24T17:02:25.237Z,1.80
2022-11-24T17:04:52.921Z,1.75
2022-11-24T17:07:20.618Z,1.77
2022-11-24T17:09:48.464Z,1.70
2022-11-24T17:12:15.441Z,1.50
2022-11-24T17:14:42.365Z,1.50
2022-11-24T17:17:09.289Z,1.60
2022-11-24T17:19:36.293Z,1.75
2022-11-24T17:22:03.212Z,1.77
2022-11-24T17:24:32.318Z,1.80
2022-11-24T17:26:59.356Z,1.85
2022-11-24T17:29:26.251Z,2.38
2022-11-24T17:31:53.211Z,2.50
2022-11-24T17:34:20.514Z,2.47
2022-11-24T17:36:47.501Z,2.00
2022-11-24T17:39:14.459Z,2.30
2022-11-24T17:41:41.454Z,2.50
2022-11-24T17:44:12.702Z,2.55
2022-11-24T17:46:39.931Z,2.80
2022-11-24T17:49:13.338Z,3.28
2022-11-24T17:51:41.317Z,3.08
2022-11-24T17:54:44.884Z,2.80
2022-11-24T17:56:55.114Z,2.38
2022-11-24T17:59:21.982Z,4.03
2022-11-24T18:01:48.870Z,3.08
2022-11-24T18:04:15.839Z,2.75
2022-11-24T18:06:42.733Z,3.22
2022-11-24T18:09:09.685Z,3.38
2022-11-24T18:11:36.740Z,3.55
2022-11-24T18:14:03.924Z,3.92
2022-11-24T18:16:31.986Z,4.03
2022-11-24T18:19:08.297Z,4.78
2022-11-24T18:21:40.144Z,3.95
2022-11-24T18:24:08.391Z,3.58
2022-11-24T18:26:35.355Z,3.70
2022-11-24T18:29:02.332Z,4.18
2022-11-24T18:31:31.069Z,3.55
2022-11-24T18:33:59.124Z,4.25
2022-11-24T18:36:30.350Z,4.28
2022-11-24T18:39:07.105Z,3.55
2022-11-24T18:41:34.259Z,3.72
2022-11-24T18:44:07.871Z,3.70
2022-11-24T18:46:35.110Z,3.90
2022-11-24T18:49:02.114Z,4.43
2022-11-24T18:51:29.178Z,4.97
2022-11-24T18:53:58.244Z,3.60
2022-11-24T18:56:25.486Z,3.42
2022-11-24T18:58:53.434Z,3.72
2022-11-24T19:01:25.492Z,3.63
2022-11-24T19:03:57.350Z,3.40
2022-11-24T19:06:32.111Z,3.75
2022-11-24T19:09:04.314Z,3.70
2022-11-24T19:11:33.678Z,3.63
2022-11-24T19:14:00.801Z,3.50
2022-11-24T19:16:28.256Z,3.60
2022-11-24T19:19:02.528Z,4.40
2022-11-24T19:21:34.083Z,3.88
2022-11-24T19:24:05.404Z,4.40
2022-11-24T19:26:35.202Z,3.85
2022-11-24T19:29:03.124Z,3.95
2022-11-24T19:31:30.130Z,3.28
2022-11-24T19:33:58.756Z,4.07
2022-11-24T19:36:26.270Z,4.40
2022-11-24T19:38:54.845Z,3.88
2022-11-24T19:41:23.410Z,4.47
2022-11-24T19:43:53.050Z,4.85
2022-11-24T19:46:20.191Z,4.95
2022-11-24T19:48:50.158Z,5.28
2022-11-24T19:51:25.462Z,4.15
2022-11-24T19:53:52.948Z,4.18
2022-11-24T19:56:24.358Z,4.10
2022-11-24T19:58:51.521Z,3.92
2022-11-24T20:01:25.162Z,4.47
2022-11-24T20:03:56.922Z,5.57
2022-11-24T20:06:23.707Z,4.18
2022-11-24T20:08:52.633Z,5.15
2022-11-24T20:11:20.500Z,4.25
2022-11-24T20:13:47.509Z,4.95
2022-11-24T20:16:26.233Z,5.07
2022-11-24T20:18:54.343Z,4.82
2022-11-24T20:21:22.491Z,4.60
2022-11-24T20:23:54.785Z,5.00
2022-11-24T20:26:23.135Z,4.80
2022-11-24T20:28:50.892Z,4.80
2022-11-24T20:31:28.408Z,4.28
2022-11-24T20:33:55.573Z,4.63
2022-11-24T20:36:24.298Z,4.18
2022-11-24T20:38:51.606Z,4.53
2022-11-24T20:41:33.406Z,4.10
2022-11-24T20:44:01.700Z,4.28
2022-11-24T20:46:30.151Z,4.05
2022-11-24T20:48:57.051Z,5.28
2022-11-24T20:51:25.559Z,4.15
2022-11-24T20:53:54.939Z,4.90
2022-11-24T20:56:23.587Z,4.43
2022-11-24T20:58:50.801Z,5.32
2022-11-24T21:01:22.088Z,4.45
2022-11-24T21:03:52.708Z,4.60
2022-11-24T21:06:19.671Z,4.57
2022-11-24T21:08:46.743Z,4.55
2022-11-24T21:11:14.007Z,5.05
2022-11-24T21:13:42.270Z,4.18
2022-11-24T21:16:16.307Z,4.88
2022-11-24T21:18:44.494Z,4.68
2022-11-24T21:21:12.119Z,3.75
2022-11-24T21:23:38.996Z,3.75
2022-11-24T21:26:11.498Z,4.35
2022-11-24T21:28:42.293Z,5.40
2022-11-24T21:31:11.357Z,4.00
2022-11-24T21:33:42.329Z,3.92
2022-11-24T21:36:09.293Z,5.20
2022-11-24T21:38:36.193Z,4.20
2022-11-24T21:41:06.996Z,4.65
2022-11-24T21:43:34.431Z,3.70
2022-11-24T21:46:02.467Z,3.72
2022-11-24T21:48:30.113Z,3.83
2022-11-24T21:51:01.204Z,4.47
2022-11-24T21:53:30.625Z,4.00
2022-11-24T21:55:58.373Z,3.33
2022-11-24T21:58:25.561Z,3.13
2022-11-24T22:00:52.518Z,3.63
2022-11-24T22:03:19.706Z,3.30
2022-11-24T22:05:59.800Z,3.45
2022-11-24T22:08:27.538Z,3.63
2022-11-24T22:10:54.573Z,3.55
2022-11-24T22:13:21.542Z,3.58
2022-11-24T22:15:48.437Z,3.63
2022-11-24T22:18:15.350Z,3.30
2022-11-24T22:20:42.243Z,3.47
2022-11-24T22:23:09.372Z,3.40
2022-11-24T22:25:36.183Z,3.45
2022-11-24T22:28:03.044Z,3.20
2022-11-24T22:30:29.834Z,3.95
2022-11-24T22:32:56.914Z,3.20
2022-11-24T22:35:23.775Z,3.53
2022-11-24T22:37:50.673Z,3.80
2022-11-24T22:40:17.649Z,3.67
2022-11-24T22:42:45.639Z,3.03
2022-11-24T22:45:12.639Z,3.75
2022-11-24T22:47:39.557Z,3.35
2022-11-24T22:50:07.167Z,3.20
2022-11-24T22:52:34.276Z,3.10
2022-11-24T22:55:01.156Z,3.50
2022-11-24T22:57:27.945Z,3.08
2022-11-24T22:59:54.771Z,3.30
2022-11-24T23:02:21.685Z,3.40
2022-11-24T23:04:48.527Z,3.50
2022-11-24T23:07:15.724Z,3.30
2022-11-24T23:09:42.953Z,3.20
2022-11-24T23:12:09.916Z,3.40
2022-11-24T23:14:36.857Z,3.40
2022-11-24T23:17:03.996Z,3.47
2022-11-24T23:19:31.063Z,4.40
2022-11-24T23:21:58.004Z,3.75
2022-11-24T23:24:24.860Z,2.92
2022-11-24T23:26:51.918Z,4.25
2022-11-24T23:29:18.853Z,3.22
2022-11-24T23:31:45.988Z,4.10
2022-11-24T23:34:12.949Z,3.35
2022-11-24T23:36:40.014Z,3.10
2022-11-24T23:39:14.347Z,3.42
2022-11-24T23:41:41.269Z,2.83
2022-11-24T23:44:08.229Z,3.50
2022-11-24T23:46:35.151Z,3.50
2022-11-24T23:49:05.447Z,3.08
2022-11-24T23:51:32.980Z,3.53
2022-11-24T23:54:00.339Z,2.90
2022-11-24T23:56:29.153Z,3.80
2022-11-24T23:58:58.876Z,4.03
